M I D A S
Marine Information and Data Acquisition System
Tripno 1511 of the Zeeleeuw from 2008-06-26 07:06:18 to 2008-06-26 14:06:15
Back to CruiseResearch ActivitiesStationsMapUnderway DataData graphs

EquipmentUnitsComment
TimeDGPSUTC
LatitudeDGPSDM.mWGS84
LongitudeDGPSDM.mWGS84
HeadingGyrodeg 
SOGDGPSknotsSpeed over ground
COGDGPSdegCourse over ground
DepthEcho soundermeters200 kHz
Missing or incorrect values are displayed as -999
Navigation data collected by the RV Zeeleeuw from 2008-06-26 07:00:21 to 2008-06-26 14:08:35
Time Latitude Longitude Heading SOG COG Depth
2008-06-26 07:01:27 51°13.643 2°55.982 115 4.3 296 -999
2008-06-26 07:02:27 51°13.676 2°55.865 109.1 4.7 291 -999
2008-06-26 07:03:27 51°13.69 2°55.774 92.4 2.8 277 12.9
2008-06-26 07:04:27 51°13.692 2°55.726 73.2 0.4 14 14.2
2008-06-26 07:05:27 51°13.716 2°55.74 4.5 2.4 1 -999
2008-06-26 07:06:27 51°13.792 2°55.673 328.3 8.1 328 12
2008-06-26 07:07:27 51°13.923 2°55.564 334.5 9.2 334 12.5
2008-06-26 07:08:27 51°14.06 2°55.459 335.4 9.2 336 12.5
2008-06-26 07:09:27 51°14.195 2°55.343 329 9.2 325 12.5
2008-06-26 07:10:26 51°14.306 2°55.173 309.4 10 308 12
2008-06-26 07:11:27 51°14.422 2°54.939 308.4 12 308 12.4
2008-06-26 07:12:26 51°14.55 2°54.699 307.3 11.8 305 11.7
2008-06-26 07:13:27 51°14.647 2°54.423 295.9 11.8 298 11.8
2008-06-26 07:14:26 51°14.741 2°54.154 297.5 11.8 301 11.6
2008-06-26 07:15:27 51°14.839 2°53.877 296.8 11.8 297 11.1
2008-06-26 07:16:26 51°14.928 2°53.603 296 11.9 298 11.2
2008-06-26 07:17:27 51°15.025 2°53.322 299.8 11.9 300 11.4
2008-06-26 07:18:27 51°15.118 2°53.042 296 12 297 11.5
2008-06-26 07:19:26 51°15.201 2°52.762 294 11.8 295 12.2
2008-06-26 07:20:26 51°15.284 2°52.477 292.6 11.8 290 12.4
2008-06-26 07:21:26 51°15.335 2°52.174 281.4 11.7 283 12.9
2008-06-26 07:22:26 51°15.388 2°51.874 284.8 11.8 287 13.4
2008-06-26 07:23:26 51°15.423 2°51.569 273.6 11.7 274 13.6
2008-06-26 07:24:26 51°15.439 2°51.259 274.6 11.8 275 14
2008-06-26 07:25:26 51°15.433 2°50.951 263.2 11.7 265 14.1
2008-06-26 07:26:26 51°15.423 2°50.642 267.2 11.7 269 14.1
2008-06-26 07:27:26 51°15.421 2°50.332 267.8 11.7 269 14.1
2008-06-26 07:28:26 51°15.42 2°50.021 268.8 11.7 270 14.2
2008-06-26 07:29:26 51°15.426 2°49.714 272.8 11.6 273 14.4
2008-06-26 07:30:26 51°15.426 2°49.406 268.2 11.7 270 14.3
2008-06-26 07:31:26 51°15.424 2°49.096 268.8 11.7 270 14.2
2008-06-26 07:32:26 51°15.43 2°48.785 269.5 11.7 270 13.2
2008-06-26 07:33:26 51°15.428 2°48.477 267.7 11.6 269 11.9
2008-06-26 07:34:26 51°15.433 2°48.168 268.6 11.6 268 11.5
2008-06-26 07:35:26 51°15.422 2°47.86 265.5 11.7 267 11.6
2008-06-26 07:36:26 51°15.426 2°47.548 271.6 11.8 272 12.2
2008-06-26 07:37:26 51°15.423 2°47.235 265 11.8 265 13.1
2008-06-26 07:38:26 51°15.411 2°46.923 265 11.8 267 14.3
2008-06-26 07:39:26 51°15.402 2°46.61 267.7 11.8 269 15.3
2008-06-26 07:40:26 51°15.401 2°46.297 268 11.8 268 16.2
2008-06-26 07:41:26 51°15.391 2°45.986 264.1 11.7 267 16.8
2008-06-26 07:42:26 51°15.38 2°45.677 265.5 11.6 267 17.5
2008-06-26 07:43:26 51°15.371 2°45.37 264.8 11.6 268 18.6
2008-06-26 07:44:26 51°15.366 2°45.061 268.4 11.7 271 19.2
2008-06-26 07:45:26 51°15.363 2°44.751 265.3 11.8 268 18.6
2008-06-26 07:46:26 51°15.355 2°44.442 264.7 11.6 267 17.2
2008-06-26 07:47:26 51°15.347 2°44.135 265 11.5 267 15.3
2008-06-26 07:48:27 51°15.347 2°43.822 268.3 11.6 270 14.2
2008-06-26 07:49:27 51°15.342 2°43.513 265.3 11.7 267 14.3
2008-06-26 07:50:27 51°15.335 2°43.201 266.8 11.8 271 14.2
2008-06-26 07:51:27 51°15.328 2°42.891 265.8 11.7 268 13.5
2008-06-26 07:52:27 51°15.32 2°42.581 266.3 11.7 270 13.2
2008-06-26 07:53:27 51°15.333 2°42.269 276.2 11.8 279 11.6
2008-06-26 07:54:27 51°15.378 2°41.963 282.7 11.9 285 11.3
2008-06-26 07:55:27 51°15.444 2°41.662 289.8 12.1 292 11.6
2008-06-26 07:56:27 51°15.518 2°41.366 289.5 12 292 11.7
2008-06-26 07:57:27 51°15.593 2°41.07 289.5 12 294 12.8
2008-06-26 07:58:27 51°15.682 2°40.782 293.9 12.1 297 14.5
2008-06-26 07:59:27 51°15.783 2°40.504 299 12.2 302 17.5
2008-06-26 08:00:27 51°15.885 2°40.226 297.2 12.2 301 19.8
2008-06-26 08:01:27 51°15.978 2°39.942 293.9 12.1 297 21.1
2008-06-26 08:02:27 51°16.073 2°39.661 295.3 12 297 20.9
2008-06-26 08:03:27 51°16.167 2°39.378 297.1 12 299 19.3
2008-06-26 08:04:27 51°16.261 2°39.096 293.9 12 298 16.2
2008-06-26 08:05:27 51°16.351 2°38.812 294 11.9 296 12.5
2008-06-26 08:06:27 51°16.44 2°38.528 294 12 296 10.3
2008-06-26 08:07:27 51°16.527 2°38.243 294 12 296 9.6
2008-06-26 08:08:27 51°16.618 2°37.956 294.9 12.2 297 18.5
2008-06-26 08:09:27 51°16.715 2°37.673 295.5 12 299 26.2
2008-06-26 08:10:27 51°16.814 2°37.397 295.4 12 300 27.2
2008-06-26 08:11:27 51°16.909 2°37.119 295.2 11.9 299 28.2
2008-06-26 08:12:27 51°17.004 2°36.839 295.3 12 299 27.7
2008-06-26 08:13:27 51°17.098 2°36.558 295.3 12 299 27.1
2008-06-26 08:14:27 51°17.194 2°36.277 295.4 12 297 24.5
2008-06-26 08:15:27 51°17.285 2°35.991 295 12.1 297 18.6
2008-06-26 08:16:27 51°17.382 2°35.709 297.3 12 298 13.2
2008-06-26 08:17:27 51°17.47 2°35.424 294.1 12 296 11.4
2008-06-26 08:18:27 51°17.559 2°35.136 294.6 12.1 297 13.1
2008-06-26 08:19:27 51°17.655 2°34.856 295.1 11.9 296 16.5
2008-06-26 08:20:27 51°17.739 2°34.572 290.2 11.7 293 23.1
2008-06-26 08:21:27 51°17.8 2°34.316 282.8 7 286 26.3
2008-06-26 08:22:27 51°17.802 2°34.242 236.5 0.2 277 27.3
2008-06-26 08:23:27 51°17.806 2°34.252 187.2 0.7 61 27
2008-06-26 08:24:26 51°17.812 2°34.27 153.6 0.9 57 26.7
2008-06-26 08:25:27 51°17.799 2°34.298 165.4 2.5 156 26.7
2008-06-26 08:26:27 51°17.759 2°34.257 241 3.8 246 26.6
2008-06-26 08:27:27 51°17.759 2°34.131 267.2 5.4 271 28.5
2008-06-26 08:28:27 51°17.784 2°34.002 300.6 4.4 311 28.6
2008-06-26 08:29:26 51°17.835 2°33.968 353.8 3 4 28.6
2008-06-26 08:30:27 51°17.876 2°33.981 14.2 1.4 20 28.4
2008-06-26 08:31:27 51°17.876 2°33.982 44 0.7 222 -999
2008-06-26 08:32:27 51°17.875 2°33.985 69.2 1.8 67 28.2
2008-06-26 08:33:27 51°17.876 2°34.035 116.9 2 105 28.2
2008-06-26 08:34:26 51°17.862 2°34.112 101.5 4 88 28
2008-06-26 08:35:27 51°17.901 2°34.2 30.5 4.1 24 28.5
2008-06-26 08:36:27 51°17.959 2°34.174 313.4 4 309 27.9
2008-06-26 08:37:27 51°17.943 2°34.087 217.6 3.2 213 28.4
2008-06-26 08:38:26 51°17.901 2°34.052 222.8 2.6 226 28.5
2008-06-26 08:39:26 51°17.873 2°34.005 217.2 2.3 208 28.3
2008-06-26 08:40:27 51°17.84 2°34.012 165.2 2.3 147 28.5
2008-06-26 08:41:27 51°17.825 2°34.086 90.3 3.4 79 28.3
2008-06-26 08:42:27 51°17.853 2°34.146 42.2 2.4 41 27
2008-06-26 08:43:27 51°17.88 2°34.177 29.6 1.7 37 24.2
2008-06-26 08:44:27 51°17.902 2°34.2 21.9 1.5 32 28.5
2008-06-26 08:45:27 51°17.921 2°34.219 11.6 1.2 29 28.1
2008-06-26 08:46:26 51°17.935 2°34.233 4 1 32 28
2008-06-26 08:47:27 51°17.948 2°34.245 353.4 0.8 37 27.8
2008-06-26 08:48:26 51°17.958 2°34.258 344.8 0.8 40 28
2008-06-26 08:49:27 51°17.967 2°34.271 344 0.6 44 28.3
2008-06-26 08:50:27 51°17.974 2°34.284 342 0.7 41 28.3
2008-06-26 08:51:26 51°17.979 2°34.299 341.8 0.7 59 28.1
2008-06-26 08:52:27 51°17.983 2°34.315 346.5 0.6 74 28
2008-06-26 08:53:27 51°17.987 2°34.331 352.1 0.7 70 27.8
2008-06-26 08:54:26 51°17.99 2°34.347 357.8 0.6 78 27.4
2008-06-26 08:55:26 51°17.992 2°34.363 4.1 0.7 80 27.2
2008-06-26 08:56:27 51°17.994 2°34.378 10.6 0.5 83 27.3
2008-06-26 08:57:27 51°17.996 2°34.391 16.8 0.4 76 27.2
2008-06-26 08:58:26 51°17.998 2°34.404 18.5 0.5 72 27.7
2008-06-26 08:59:27 51°18.001 2°34.418 17.1 0.6 72 27.8
2008-06-26 09:00:27 51°18.006 2°34.431 14.5 0.6 59 27.6
2008-06-26 09:01:26 51°18.012 2°34.443 7.5 0.6 52 27.7
2008-06-26 09:02:26 51°18.018 2°34.456 1.2 0.7 63 27.7
2008-06-26 09:03:27 51°18.024 2°34.468 356.8 0.5 49 27.9
2008-06-26 09:04:26 51°18.029 2°34.48 353.2 0.5 54 27.7
2008-06-26 09:05:27 51°18.033 2°34.492 349 0.5 66 27.4
2008-06-26 09:06:26 51°18.037 2°34.503 347.6 0.5 71 27.1
2008-06-26 09:07:26 51°18.04 2°34.515 347.5 0.4 67 26.6
2008-06-26 09:08:27 51°18.042 2°34.526 347.8 0.4 59 26.6
2008-06-26 09:09:27 51°18.043 2°34.539 351.3 0.5 83 27.1
2008-06-26 09:10:27 51°18.058 2°34.541 335.1 2.3 332 27.2
2008-06-26 09:11:27 51°18.095 2°34.445 285.1 5.2 282 27.6
2008-06-26 09:12:27 51°18.051 2°34.356 197.9 4.9 203 27.7
2008-06-26 09:13:27 51°18.001 2°34.34 172.9 1.8 171 26.3
2008-06-26 09:14:27 51°17.978 2°34.358 149.6 1.4 141 27.6
2008-06-26 09:15:27 51°17.965 2°34.377 149.3 1 135 27.6
2008-06-26 09:16:27 51°17.955 2°34.394 156.3 0.8 138 27.8
2008-06-26 09:17:27 51°17.946 2°34.406 164.1 0.6 127 27.5
2008-06-26 09:18:27 51°17.939 2°34.417 168.7 0.7 127 27.4
2008-06-26 09:19:27 51°17.937 2°34.425 169.6 0.4 106 27.2
2008-06-26 09:20:27 51°17.935 2°34.434 172.2 0.5 112 26.7
2008-06-26 09:21:27 51°17.933 2°34.447 172.8 0.5 99 26
2008-06-26 09:22:27 51°17.933 2°34.457 175 0.5 88 25.4
2008-06-26 09:23:27 51°17.933 2°34.468 176 0.4 79 25.4
2008-06-26 09:24:27 51°17.933 2°34.479 175.5 0.5 122 27.5
2008-06-26 09:25:27 51°17.923 2°34.488 190.9 1.1 174 27.9
2008-06-26 09:26:27 51°17.901 2°34.468 224.9 2.3 230 25.9
2008-06-26 09:27:26 51°17.903 2°34.395 296.3 2.7 307 27.8
2008-06-26 09:28:28 51°17.939 2°34.365 346.7 2.1 351 27.6
2008-06-26 09:29:26 51°17.973 2°34.365 3.7 2 7 27.4
2008-06-26 09:30:27 51°18.008 2°34.372 3.8 2 8 27
2008-06-26 09:31:26 51°18.034 2°34.372 351.6 1.2 357 27.7
2008-06-26 09:32:26 51°18.048 2°34.371 339.5 0.7 358 27.5
2008-06-26 09:33:26 51°18.057 2°34.37 334.8 0.5 359 27.3
2008-06-26 09:34:26 51°18.065 2°34.371 332.3 0.5 11 27.1
2008-06-26 09:35:27 51°18.071 2°34.373 331.6 0.4 17 27.1
2008-06-26 09:36:26 51°18.077 2°34.376 332.7 0.3 23 27
2008-06-26 09:37:27 51°18.082 2°34.379 336.4 0.4 37 27.1
2008-06-26 09:38:27 51°18.087 2°34.378 340.7 0.3 31 27.2
2008-06-26 09:39:26 51°18.09 2°34.391 346.2 0.3 48 27
2008-06-26 09:40:26 51°18.093 2°34.397 349.5 0.3 41 27.2
2008-06-26 09:41:26 51°18.097 2°34.404 352.4 0.3 46 27.1
2008-06-26 09:42:27 51°18.1 2°34.411 354.8 0.3 69 27.2
2008-06-26 09:43:27 51°18.102 2°34.418 356.8 0.3 64 27.2
2008-06-26 09:44:27 51°18.104 2°34.425 358.4 0.3 54 27
2008-06-26 09:45:27 51°18.107 2°34.432 357 0.4 65 27.1
2008-06-26 09:46:27 51°18.11 2°34.439 356.5 0.3 45 27.1
2008-06-26 09:47:27 51°18.114 2°34.444 353.1 0.2 38 27.2
2008-06-26 09:48:27 51°18.118 2°34.449 352.9 0.5 14 27.2
2008-06-26 09:49:27 51°18.176 2°34.432 350.5 7 350 26.8
2008-06-26 09:50:27 51°18.327 2°34.388 353.5 10.6 350 25.5
2008-06-26 09:51:27 51°18.509 2°34.331 350.8 11.6 346 21.5
2008-06-26 09:52:27 51°18.701 2°34.253 348.4 12.2 346 18.1
2008-06-26 09:53:27 51°18.896 2°34.164 345.5 12.2 341 15.7
2008-06-26 09:54:27 51°19.075 2°34.007 333.2 12.6 329 13.3
2008-06-26 09:55:27 51°19.26 2°33.855 336.1 12.4 332 25
2008-06-26 09:56:27 51°19.436 2°33.687 323.6 12 319 28.1
2008-06-26 09:57:27 51°19.569 2°33.44 312.3 12.4 311 26.9
2008-06-26 09:58:27 51°19.71 2°33.193 315 12.4 312 30
2008-06-26 09:59:27 51°19.85 2°32.966 320.9 12.5 319 30.6
2008-06-26 10:00:27 51°20.009 2°32.763 325.4 12.2 322 30
2008-06-26 10:01:27 51°20.17 2°32.561 325.1 12.3 322 29.3
2008-06-26 10:02:27 51°20.328 2°32.352 322.6 12.2 319 29.7
2008-06-26 10:03:27 51°20.484 2°32.143 323.3 12.2 320 29.2
2008-06-26 10:04:27 51°20.64 2°31.935 324.3 12.3 321 25.1
2008-06-26 10:05:27 51°20.797 2°31.724 323.8 12.4 320 17.4
2008-06-26 10:06:27 51°20.949 2°31.499 318.1 12.6 314 12.6
2008-06-26 10:07:27 51°21.088 2°31.244 315.1 12.9 311 12.4
2008-06-26 10:08:27 51°21.23 2°30.987 317.7 12.8 313 20.3
2008-06-26 10:09:27 51°21.376 2°30.75 326.1 12.3 324 18.1
2008-06-26 10:10:27 51°21.56 2°30.621 349.5 12.2 345 29.8
2008-06-26 10:11:27 51°21.754 2°30.535 349.8 12.1 343 31
2008-06-26 10:12:27 51°21.948 2°30.439 347.9 12.1 342 31.3
2008-06-26 10:13:27 51°22.14 2°30.345 348.8 12.1 343 31.3
2008-06-26 10:14:27 51°22.332 2°30.245 347.9 12.2 343 30.1
2008-06-26 10:15:27 51°22.525 2°30.148 349 12.3 343 30.7
2008-06-26 10:16:27 51°22.719 2°30.047 346.5 12.3 341 31.5
2008-06-26 10:17:27 51°22.916 2°29.974 1.2 12.1 358 32
2008-06-26 10:18:27 51°23.118 2°29.986 6.6 12 3 32.9
2008-06-26 10:19:27 51°23.317 2°29.993 6.1 12.1 357 32
2008-06-26 10:20:27 51°23.511 2°29.991 3.7 9.8 358 32.1
2008-06-26 10:21:27 51°23.643 2°29.979 2.7 7 357 32.1
2008-06-26 10:22:27 51°23.735 2°29.951 347.9 4.9 342 32.3
2008-06-26 10:23:27 51°23.79 2°29.897 312.4 3.3 310 32.7
2008-06-26 10:24:27 51°23.804 2°29.816 259.7 2.9 266 32.1
2008-06-26 10:25:27 51°23.791 2°29.766 221.3 1.6 231 31.7
2008-06-26 10:26:27 51°23.778 2°29.751 196.6 0.7 197 32.1
2008-06-26 10:27:27 51°23.772 2°29.749 184.6 0.2 190 31.8
2008-06-26 10:28:27 51°23.77 2°29.753 173.1 0.2 117 31.9
2008-06-26 10:29:27 51°23.764 2°29.759 162.6 0.4 147 31.8
2008-06-26 10:30:27 51°23.76 2°29.765 159.6 0.3 127 31.9
2008-06-26 10:31:27 51°23.757 2°29.771 158.2 0.4 146 32
2008-06-26 10:32:27 51°23.752 2°29.775 161.2 0.3 153 32
2008-06-26 10:33:27 51°23.749 2°29.779 160.9 0.3 146 31.8
2008-06-26 10:34:27 51°23.745 2°29.781 163.3 0.2 177 31.5
2008-06-26 10:35:27 51°23.743 2°29.783 160.9 0.1 71 31.5
2008-06-26 10:36:27 51°23.742 2°29.786 153 0.2 50 31.4
2008-06-26 10:37:27 51°23.742 2°29.79 143.5 0.2 92 31.4
2008-06-26 10:38:27 51°23.741 2°29.794 143.7 0.2 127 31.8
2008-06-26 10:39:26 51°23.738 2°29.799 147.2 0.3 49 31.3
2008-06-26 10:40:27 51°23.736 2°29.801 146 0.1 127 31.6
2008-06-26 10:41:27 51°23.748 2°29.8 144.3 0.4 354 31.7
2008-06-26 10:42:27 51°23.744 2°29.803 145.8 -999 34 31.9
2008-06-26 10:43:27 51°23.745 2°29.804 144.4 0.1 349 31.8
2008-06-26 10:44:27 51°23.747 2°29.803 143.5 0.1 327 32
2008-06-26 10:45:27 51°23.75 2°29.803 142 0.2 324 32.1
2008-06-26 10:46:27 51°23.748 2°29.807 146.8 0.6 143 32.3
2008-06-26 10:47:27 51°23.731 2°29.812 167.8 1 183 32.5
2008-06-26 10:48:27 51°23.716 2°29.811 174.3 0.9 186 32.6
2008-06-26 10:49:27 51°23.697 2°29.806 186.4 0.8 202 32.2
2008-06-26 10:50:27 51°23.688 2°29.801 186.9 0.9 198 32.1
2008-06-26 10:51:27 51°23.682 2°29.797 191.1 0.1 24 31.7
2008-06-26 10:52:27 51°23.686 2°29.796 166.2 0.3 314 31.9
2008-06-26 10:53:27 51°23.688 2°29.793 142.9 0.2 322 32
2008-06-26 10:54:27 51°23.69 2°29.789 130.4 0.1 330 31.8
2008-06-26 10:55:27 51°23.689 2°29.789 128.5 0.1 202 31.7
2008-06-26 10:56:27 51°23.688 2°29.788 134.9 0.1 135 31.7
2008-06-26 10:57:27 51°23.685 2°29.787 140.9 0.2 157 31.8
2008-06-26 10:58:27 51°23.681 2°29.787 140 0.3 179 31.8
2008-06-26 10:59:27 51°23.677 2°29.786 144.1 0.2 196 31.6
2008-06-26 11:00:27 51°23.666 2°29.8 127.9 1.5 134 32
2008-06-26 11:01:27 51°23.658 2°29.849 79.5 2.3 79 32.2
2008-06-26 11:02:27 51°23.685 2°29.883 21.3 2 9 32
2008-06-26 11:03:27 51°23.715 2°29.867 338.3 2 321 32.4
2008-06-26 11:04:27 51°23.732 2°29.83 319.5 1.6 302 32.7
2008-06-26 11:05:27 51°23.736 2°29.809 316.4 0.2 308 28.2
2008-06-26 11:06:27 51°23.732 2°29.808 339.5 0.4 208 31.8
2008-06-26 11:07:27 51°23.727 2°29.804 351.2 0.2 249 32.3
2008-06-26 11:08:27 51°23.727 2°29.796 348.6 0.3 256 29.4
2008-06-26 11:09:27 51°23.725 2°29.787 339.6 0.4 242 27.5
2008-06-26 11:10:27 51°23.721 2°29.779 334.5 0.3 224 29.4
2008-06-26 11:11:27 51°23.716 2°29.772 336.4 0.3 224 27.5
2008-06-26 11:12:27 51°23.712 2°29.768 341.2 0.3 205 31
2008-06-26 11:13:27 51°23.706 2°29.763 343.8 0.4 210 31.7
2008-06-26 11:14:27 51°23.701 2°29.757 340.8 0.4 221 31.6
2008-06-26 11:15:27 51°23.706 2°29.746 355.3 1.3 332 31.7
2008-06-26 11:16:27 51°23.734 2°29.746 31.8 1.9 23 31.8
2008-06-26 11:17:27 51°23.749 2°29.777 69.7 1.2 83 31.8
2008-06-26 11:18:27 51°23.744 2°29.798 97.8 0.8 138 31.8
2008-06-26 11:19:27 51°23.736 2°29.802 114.8 0.5 192 28.7
2008-06-26 11:20:27 51°23.727 2°29.795 130.9 0.5 195 32.4
2008-06-26 11:21:27 51°23.717 2°29.787 140.9 0.7 217 32.2
2008-06-26 11:22:27 51°23.71 2°29.777 147.6 0.5 222 32
2008-06-26 11:23:27 51°23.704 2°29.768 147.6 0.5 229 32
2008-06-26 11:24:27 51°23.698 2°29.759 147.1 0.6 225 31.8
2008-06-26 11:25:27 51°23.693 2°29.751 146.7 0.4 223 31.9
2008-06-26 11:26:27 51°23.685 2°29.75 135.3 1.1 155 32
2008-06-26 11:27:27 51°23.668 2°29.784 94.1 1.9 102 32
2008-06-26 11:28:27 51°23.683 2°29.822 36.9 2.1 25 32.1
2008-06-26 11:29:27 51°23.721 2°29.85 30.6 2.9 19 32.2
2008-06-26 11:30:27 51°23.759 2°29.843 354.8 1.8 330 32.2
2008-06-26 11:31:27 51°23.761 2°29.829 334.8 0.4 236 32.2
2008-06-26 11:32:27 51°23.755 2°29.822 338.8 0.5 206 32.5
2008-06-26 11:33:27 51°23.748 2°29.815 348.4 0.5 203 32.3
2008-06-26 11:34:27 51°23.741 2°29.807 349.6 0.6 229 31.5
2008-06-26 11:35:27 51°23.736 2°29.794 344.1 0.6 241 29.9
2008-06-26 11:36:27 51°23.732 2°29.781 338.3 0.5 243 31.9
2008-06-26 11:37:27 51°23.727 2°29.769 333.8 0.5 237 32.1
2008-06-26 11:38:27 51°23.722 2°29.758 334.5 0.5 243 31.8
2008-06-26 11:39:27 51°23.717 2°29.748 337.2 0.5 231 32
2008-06-26 11:40:27 51°23.706 2°29.737 336.7 0.6 227 31.9
2008-06-26 11:41:27 51°23.705 2°29.723 338.1 0.6 272 32.1
2008-06-26 11:42:27 51°23.714 2°29.702 350.8 1.4 323 32.4
2008-06-26 11:43:27 51°23.74 2°29.691 22.1 1.8 11 32.5
2008-06-26 11:44:27 51°23.76 2°29.727 62.3 2.2 69 32.2
2008-06-26 11:45:27 51°23.77 2°29.779 69.2 1.8 78 31.7
2008-06-26 11:46:27 51°23.77 2°29.819 78.3 1.3 103 32.1
2008-06-26 11:47:27 51°23.759 2°29.843 101.5 1 150 32.1
2008-06-26 11:48:27 51°23.747 2°29.838 121.5 0.8 230 32.7
2008-06-26 11:49:27 51°23.739 2°29.823 132 0.7 232 32.4
2008-06-26 11:50:27 51°23.732 2°29.807 139.3 0.7 230 32.4
2008-06-26 11:51:27 51°23.725 2°29.793 137.8 0.6 233 32.5
2008-06-26 11:52:27 51°23.717 2°29.779 136.7 0.7 225 32.1
2008-06-26 11:53:27 51°23.708 2°29.766 137.9 0.7 222 32
2008-06-26 11:54:27 51°23.699 2°29.755 139.3 0.8 211 31.7
2008-06-26 11:55:27 51°23.688 2°29.745 143.5 0.8 209 31.9
2008-06-26 11:56:27 51°23.671 2°29.744 131.3 1.5 169 32.5
2008-06-26 11:57:27 51°23.648 2°29.77 104.3 1.8 125 32.6
2008-06-26 11:58:27 51°23.645 2°29.811 59.2 1.4 56 32.2
2008-06-26 11:59:27 51°23.67 2°29.838 41.4 2.2 38 32
2008-06-26 12:00:27 51°23.705 2°29.88 37.9 2.8 33 32.3
2008-06-26 12:01:27 51°23.742 2°29.889 11.2 1.8 352 32.2
2008-06-26 12:02:27 51°23.763 2°29.871 351.6 1.3 303 32.9
2008-06-26 12:03:27 51°23.766 2°29.846 335.9 1 260 32.3
2008-06-26 12:04:27 51°23.76 2°29.829 324.4 0.8 216 32.6
2008-06-26 12:05:27 51°23.748 2°29.82 335.9 0.8 207 32.7
2008-06-26 12:06:27 51°23.739 2°29.808 343.6 0.7 223 28.3
2008-06-26 12:07:27 51°23.729 2°29.796 341.5 0.7 212 29.2
2008-06-26 12:08:27 51°23.719 2°29.784 338.3 0.8 212 32.4
2008-06-26 12:09:27 51°23.709 2°29.773 338.8 0.7 212 32.1
2008-06-26 12:10:27 51°23.7 2°29.762 338.5 0.8 222 32.1
2008-06-26 12:11:27 51°23.69 2°29.751 336.7 0.6 209 32
2008-06-26 12:12:27 51°23.68 2°29.741 336 0.6 217 32
2008-06-26 12:13:27 51°23.671 2°29.731 334.8 0.7 218 32.4
2008-06-26 12:14:27 51°23.662 2°29.72 333.5 0.6 213 32.5
2008-06-26 12:15:27 51°23.653 2°29.708 333 0.7 222 32.1
2008-06-26 12:16:27 51°23.65 2°29.69 328.9 1.2 289 32.2
2008-06-26 12:17:27 51°23.655 2°29.6 269.3 5 257 33
2008-06-26 12:18:26 51°23.589 2°29.526 170 5.6 170 33.2
2008-06-26 12:19:27 51°23.467 2°29.615 147.7 9.7 156 32.2
2008-06-26 12:20:26 51°23.31 2°29.732 147.8 11.1 155 32.1
2008-06-26 12:21:27 51°23.139 2°29.864 148 11.3 154 32
2008-06-26 12:22:26 51°22.982 2°30.018 137.8 11.6 142 32.4
2008-06-26 12:23:27 51°22.823 2°30.217 134.2 11.7 136 31.9
2008-06-26 12:24:26 51°22.711 2°30.462 117.5 11.5 125 30.7
2008-06-26 12:25:27 51°22.593 2°30.712 123.8 11.7 129 28.8
2008-06-26 12:26:27 51°22.471 2°30.951 122.8 11.6 131 29.5
2008-06-26 12:27:27 51°22.345 2°31.185 124.7 11.5 130 29.9
2008-06-26 12:28:27 51°22.221 2°31.416 125.1 11.5 128 30
2008-06-26 12:29:27 51°22.091 2°31.648 122.9 11.7 133 30.2
2008-06-26 12:30:28 51°21.96 2°31.887 124.7 11.7 129 28.1
2008-06-26 12:31:26 51°21.839 2°32.119 122.6 11.7 133 27.9
2008-06-26 12:32:27 51°21.713 2°32.365 123.6 11.9 129 23.2
2008-06-26 12:33:27 51°21.591 2°32.613 121.1 11.8 127 20.6
2008-06-26 12:34:27 51°21.463 2°32.858 124.2 12.1 132 21.1
2008-06-26 12:35:27 51°21.339 2°33.105 120.4 11.7 125 27
2008-06-26 12:36:27 51°21.218 2°33.357 121.7 12 127 29.8
2008-06-26 12:37:28 51°21.092 2°33.607 120.7 11.9 127 31.4
2008-06-26 12:38:26 51°20.975 2°33.847 122 11.9 125 30.2
2008-06-26 12:39:27 51°20.85 2°34.097 120.7 11.9 129 29.8
2008-06-26 12:40:26 51°20.731 2°34.335 120.4 11.7 126 31.3
2008-06-26 12:41:26 51°20.609 2°34.578 121.8 11.7 127 29.2
2008-06-26 12:42:27 51°20.485 2°34.827 121 11.8 128 29
2008-06-26 12:43:26 51°20.368 2°35.067 120.8 11.5 128 28.6
2008-06-26 12:44:27 51°20.245 2°35.31 121.5 11.6 128 19.8
2008-06-26 12:45:26 51°20.126 2°35.547 121.1 11.7 130 16.1
2008-06-26 12:46:27 51°20 2°35.788 120.4 11.6 130 18.3
2008-06-26 12:47:26 51°19.88 2°36.027 121.5 11.7 129 20.2
2008-06-26 12:48:27 51°19.751 2°36.275 121.8 11.9 133 20
2008-06-26 12:49:26 51°19.629 2°36.515 121 11.8 128 20.7
2008-06-26 12:50:27 51°19.503 2°36.76 121.6 11.9 135 18.2
2008-06-26 12:51:27 51°19.378 2°37.005 121.1 12 128 19.4
2008-06-26 12:52:27 51°19.254 2°37.25 119.4 11.6 128 19.5
2008-06-26 12:53:27 51°19.135 2°37.499 120.2 11.7 127 17.4
2008-06-26 12:54:26 51°19.016 2°37.742 119 11.7 128 21.5
2008-06-26 12:55:27 51°18.895 2°37.997 119.8 12 129 23.3
2008-06-26 12:56:26 51°18.773 2°38.249 118.2 12.2 127 25.7
2008-06-26 12:57:27 51°18.652 2°38.513 119.5 12.2 126 25.7
2008-06-26 12:58:27 51°18.545 2°38.779 115.1 12 120 26.2
2008-06-26 12:59:26 51°18.44 2°39.043 114.6 12 121 25.3
2008-06-26 13:00:27 51°18.331 2°39.321 115.9 11.8 122 25.5
2008-06-26 13:01:26 51°18.231 2°39.585 116 11.8 121 26
2008-06-26 13:02:27 51°18.126 2°39.861 115 12 123 20.1
2008-06-26 13:03:26 51°18.023 2°40.122 114.6 11.9 126 18.9
2008-06-26 13:04:27 51°17.92 2°40.387 114.3 11.7 122 14.6
2008-06-26 13:05:27 51°17.817 2°40.651 115.6 11.6 123 15.8
2008-06-26 13:06:27 51°17.716 2°40.915 110.9 12 120 20.2
2008-06-26 13:07:27 51°17.62 2°41.191 110.2 12 120 22.3
2008-06-26 13:08:27 51°17.531 2°41.473 111.2 11.7 116 23
2008-06-26 13:09:27 51°17.44 2°41.757 112.6 12 116 23.7
2008-06-26 13:10:27 51°17.354 2°42.037 110.6 11.7 116 22.9
2008-06-26 13:11:27 51°17.268 2°42.317 111.2 11.9 117 20.2
2008-06-26 13:12:26 51°17.184 2°42.59 112 11.4 118 9
2008-06-26 13:13:27 51°17.096 2°42.865 112.6 11.3 119 9.5
2008-06-26 13:14:26 51°17.006 2°43.137 112.8 11.9 120 12.2
2008-06-26 13:15:27 51°16.913 2°43.417 111.3 11.8 119 13.2
2008-06-26 13:16:27 51°16.823 2°43.694 109.9 11.8 117 14.3
2008-06-26 13:17:26 51°16.732 2°43.97 110.6 12.1 118 14.6
2008-06-26 13:18:27 51°16.639 2°44.256 111 12 119 14
2008-06-26 13:19:26 51°16.545 2°44.533 111.3 12.1 122 12
2008-06-26 13:20:27 51°16.453 2°44.824 109.6 12 117 10.1
2008-06-26 13:21:27 51°16.371 2°45.117 110.4 12.2 110 10.9
2008-06-26 13:22:28 51°16.282 2°45.412 111.3 12 114 10.7
2008-06-26 13:23:27 51°16.201 2°45.701 108.9 12 112 10.5
2008-06-26 13:24:27 51°16.12 2°45.995 109.6 12 114 10.5
2008-06-26 13:25:27 51°16.038 2°46.29 111.2 12.3 113 12.9
2008-06-26 13:26:27 51°15.953 2°46.583 112.3 12.3 119 15.2
2008-06-26 13:27:27 51°15.867 2°46.879 111.4 12.5 117 16.4
2008-06-26 13:28:27 51°15.791 2°47.176 107.4 12.2 107 15.8
2008-06-26 13:29:27 51°15.727 2°47.474 104.4 11.7 112 14.5
2008-06-26 13:30:27 51°15.665 2°47.768 106.1 11.9 110 12.9
2008-06-26 13:31:28 51°15.596 2°48.069 107.3 12 109 11.2
2008-06-26 13:32:28 51°15.531 2°48.367 101.6 11.7 107 10.3
2008-06-26 13:33:28 51°15.469 2°48.666 103.5 12 110 10.4
2008-06-26 13:34:27 51°15.407 2°48.965 105.3 12.1 106 12.6
2008-06-26 13:35:26 51°15.348 2°49.263 104.9 12 108 12.9
2008-06-26 13:36:28 51°15.284 2°49.574 103.7 11.9 109 12.7
2008-06-26 13:37:26 51°15.227 2°49.865 103.7 11.8 109 12.6
2008-06-26 13:38:28 51°15.164 2°50.172 104.1 11.8 107 12.7
2008-06-26 13:39:28 51°15.101 2°50.471 105.6 11.8 110 12.4
2008-06-26 13:40:28 51°15.039 2°50.77 104.4 11.8 107 12.1
2008-06-26 13:41:28 51°14.976 2°51.064 104.2 11.8 109 11.8
2008-06-26 13:42:28 51°14.921 2°51.355 100.3 11.3 107 11.3
2008-06-26 13:43:28 51°14.865 2°51.649 102.5 11.6 105 10.7
2008-06-26 13:44:28 51°14.816 2°51.947 99.8 11.6 104 10.1
2008-06-26 13:45:28 51°14.776 2°52.249 98.7 11.7 103 9.7
2008-06-26 13:46:27 51°14.736 2°52.548 100.3 12 103 9.5
2008-06-26 13:47:28 51°14.693 2°52.849 98.4 10.5 103 9.3
2008-06-26 13:48:28 51°14.654 2°53.099 99.9 9.4 104 9
2008-06-26 13:49:28 51°14.616 2°53.34 100.1 9 104 8.6
2008-06-26 13:50:28 51°14.583 2°53.551 99.2 7.9 106 8.7
2008-06-26 13:51:28 51°14.55 2°53.745 100.2 7.2 105 10.2
2008-06-26 13:52:28 51°14.523 2°53.91 99.3 5.3 106 10.2
2008-06-26 13:53:26 51°14.502 2°54.021 102.7 4.1 110 10
2008-06-26 13:54:28 51°14.478 2°54.118 101.7 3.6 112 9.9
2008-06-26 13:55:28 51°14.459 2°54.204 103.2 3.3 111 10
2008-06-26 13:56:28 51°14.439 2°54.283 100.5 3.2 108 9.8
2008-06-26 13:57:28 51°14.42 2°54.362 100.6 3.1 109 9.8
2008-06-26 13:58:28 51°14.403 2°54.431 100.1 2.6 111 10
2008-06-26 13:59:28 51°14.388 2°54.488 98.1 2.1 112 9.8
2008-06-26 14:00:28 51°14.376 2°54.536 100.9 1.9 119 9.7
2008-06-26 14:01:28 51°14.362 2°54.576 108 1.4 128 9.5
2008-06-26 14:02:28 51°14.351 2°54.597 100.5 1.9 107 9.4
2008-06-26 14:03:28 51°14.358 2°54.67 61.9 3.2 66 10
2008-06-26 14:04:28 51°14.397 2°54.744 38.4 3.9 40 11.1
2008-06-26 14:05:28 51°14.408 2°54.872 103.9 7.4 113 10.7
2008-06-26 14:06:28 51°14.332 2°55.103 116.4 11.4 117 11.1
2008-06-26 14:07:28 51°14.201 2°55.334 137.6 11.6 142 11.1
2008-06-26 14:08:28 51°14.047 2°55.474 155.2 9.3 155 11